createdAt,value
2022-11-28T00:02:01.588Z,8.60
2022-11-28T00:04:51.907Z,10.13
2022-11-28T00:07:39.099Z,6.03
2022-11-28T00:10:26.399Z,10.20
2022-11-28T00:13:13.945Z,8.90
2022-11-28T00:16:03.302Z,8.52
2022-11-28T00:18:52.047Z,7.30
2022-11-28T00:21:39.660Z,10.25
2022-11-28T00:24:26.735Z,7.53
2022-11-28T00:27:13.750Z,9.43
2022-11-28T00:30:01.020Z,8.95
2022-11-28T00:32:48.035Z,6.63
2022-11-28T00:35:35.048Z,7.28
2022-11-28T00:38:22.034Z,10.40
2022-11-28T00:41:13.864Z,7.78
2022-11-28T00:44:01.627Z,15.00
2022-11-28T00:46:48.657Z,8.27
2022-11-28T00:49:35.726Z,7.70
2022-11-28T00:52:22.925Z,10.90
2022-11-28T00:55:09.980Z,5.93
2022-11-28T00:57:56.978Z,8.60
2022-11-28T01:00:44.048Z,10.10
2022-11-28T01:03:31.094Z,6.80
2022-11-28T01:06:39.867Z,7.60
2022-11-28T01:09:26.920Z,7.95
2022-11-28T01:12:13.908Z,8.32
2022-11-28T01:15:00.963Z,6.68
2022-11-28T01:17:47.967Z,6.57
2022-11-28T01:20:35.143Z,7.85
2022-11-28T01:23:22.207Z,10.60
2022-11-28T01:26:11.297Z,9.32
2022-11-28T01:29:00.569Z,8.00
2022-11-28T01:31:47.654Z,8.77
2022-11-28T01:34:34.679Z,7.68
2022-11-28T01:37:21.658Z,8.43
2022-11-28T01:40:10.893Z,6.60
2022-11-28T01:42:57.963Z,9.30
2022-11-28T01:45:45.388Z,7.57
2022-11-28T01:48:37.577Z,7.10
2022-11-28T01:51:24.811Z,10.10
2022-11-28T01:54:12.911Z,7.30
2022-11-28T01:57:11.128Z,8.63
2022-11-28T02:00:11.844Z,9.38
2022-11-28T02:03:29.754Z,9.85
2022-11-28T02:06:20.081Z,6.45
2022-11-28T02:09:14.790Z,8.88
2022-11-28T02:12:22.671Z,9.90
2022-11-28T02:15:32.363Z,9.48
2022-11-28T02:18:32.201Z,8.35
2022-11-28T02:21:46.769Z,8.55
2022-11-28T02:25:02.783Z,10.30
2022-11-28T02:28:11.633Z,6.97
2022-11-28T02:31:13.799Z,7.22
2022-11-28T02:34:06.276Z,8.70
2022-11-28T02:37:45.971Z,8.07
2022-11-28T02:41:01.667Z,7.57
2022-11-28T02:44:01.468Z,9.70
2022-11-28T02:47:03.889Z,10.48
2022-11-28T02:49:54.706Z,7.68
2022-11-28T02:52:59.983Z,8.13
2022-11-28T02:55:48.872Z,7.20
2022-11-28T02:58:36.839Z,9.38
2022-11-28T03:01:34.628Z,8.65
2022-11-28T03:04:45.034Z,8.55
2022-11-28T03:08:00.105Z,6.78
2022-11-28T03:11:10.959Z,9.13
2022-11-28T03:14:17.112Z,8.30
2022-11-28T03:17:15.611Z,8.35
2022-11-28T03:20:30.495Z,7.57
2022-11-28T03:23:36.770Z,7.90
2022-11-28T03:26:33.469Z,8.23
2022-11-28T03:29:32.755Z,7.72
2022-11-28T03:32:29.948Z,10.10
2022-11-28T03:35:21.664Z,8.43
2022-11-28T03:38:18.554Z,7.32
2022-11-28T03:41:14.792Z,8.25
2022-11-28T03:44:04.961Z,7.88
2022-11-28T03:46:53.425Z,9.18
2022-11-28T03:49:51.320Z,12.23
2022-11-28T03:52:43.312Z,8.45
2022-11-28T03:55:42.127Z,8.43
2022-11-28T03:58:52.247Z,9.82
2022-11-28T04:02:02.591Z,9.27
2022-11-28T04:05:27.121Z,10.50
2022-11-28T04:08:17.051Z,10.75
2022-11-28T04:11:11.142Z,8.65
2022-11-28T04:14:05.045Z,7.40
2022-11-28T04:16:54.771Z,9.20
2022-11-28T04:19:58.307Z,7.57
2022-11-28T04:22:51.516Z,7.65
2022-11-28T04:25:42.726Z,7.80
2022-11-28T04:28:32.789Z,8.25
2022-11-28T04:31:22.829Z,7.75
2022-11-28T04:34:14.141Z,10.77
2022-11-28T04:37:09.474Z,7.28
2022-11-28T04:39:57.325Z,7.82
2022-11-28T04:42:53.006Z,12.50
2022-11-28T04:45:46.834Z,9.25
2022-11-28T04:48:34.656Z,7.35
2022-11-28T04:51:36.171Z,7.70
2022-11-28T04:54:33.271Z,10.18
2022-11-28T04:57:37.712Z,9.48
2022-11-28T05:00:26.318Z,8.23
2022-11-28T05:03:13.481Z,7.55
2022-11-28T05:06:01.912Z,9.98
2022-11-28T05:08:49.045Z,7.75
2022-11-28T05:11:36.094Z,6.90
2022-11-28T05:14:23.355Z,9.35
2022-11-28T05:17:12.843Z,11.07
2022-11-28T05:19:59.953Z,11.80
2022-11-28T05:22:46.960Z,8.43
2022-11-28T05:25:34.020Z,9.60
2022-11-28T05:28:21.230Z,7.82
2022-11-28T05:31:08.273Z,9.23
2022-11-28T05:33:56.361Z,10.50
2022-11-28T05:36:43.616Z,7.93
2022-11-28T05:39:31.020Z,11.82
2022-11-28T05:42:18.424Z,8.85
2022-11-28T05:45:05.919Z,9.43
2022-11-28T05:47:52.941Z,9.15
2022-11-28T05:50:41.257Z,11.60
2022-11-28T05:53:28.363Z,10.57
2022-11-28T05:56:18.787Z,12.45
2022-11-28T05:59:05.963Z,11.75
2022-11-28T06:01:53.066Z,9.57
2022-11-28T06:04:41.835Z,9.60
2022-11-28T06:07:29.070Z,8.15
2022-11-28T06:10:16.172Z,9.38
2022-11-28T06:13:03.332Z,10.43
2022-11-28T06:15:50.376Z,30.75
2022-11-28T06:18:38.765Z,22.85
2022-11-28T06:21:26.722Z,14.80
2022-11-28T06:24:13.877Z,13.52
2022-11-28T06:27:00.910Z,14.90
2022-11-28T06:29:47.915Z,14.90
2022-11-28T06:32:35.181Z,15.15
2022-11-28T06:35:22.240Z,12.88
2022-11-28T06:38:14.048Z,12.02
2022-11-28T06:41:04.271Z,13.75
2022-11-28T06:43:51.542Z,14.18
2022-11-28T06:46:38.696Z,14.50
2022-11-28T06:49:25.725Z,12.13
2022-11-28T06:52:12.774Z,12.68
2022-11-28T06:54:59.797Z,15.80
2022-11-28T06:57:46.914Z,12.32
2022-11-28T07:00:34.257Z,16.75
2022-11-28T07:03:21.256Z,13.68
2022-11-28T07:06:08.924Z,15.43
2022-11-28T07:08:59.750Z,12.15
2022-11-28T07:11:46.761Z,10.80
2022-11-28T07:14:34.588Z,12.77
2022-11-28T07:17:21.611Z,11.15
2022-11-28T07:20:09.169Z,11.65
2022-11-28T07:22:56.193Z,11.02
2022-11-28T07:25:43.254Z,11.95
2022-11-28T07:28:31.390Z,12.05
2022-11-28T07:31:21.711Z,14.75
2022-11-28T07:34:09.472Z,11.75
2022-11-28T07:36:56.481Z,14.95
2022-11-28T07:39:44.696Z,13.82
2022-11-28T07:42:32.099Z,14.77
2022-11-28T07:45:41.665Z,14.20
2022-11-28T07:54:07.785Z,11.85
2022-11-28T07:57:12.460Z,14.27
2022-11-28T07:59:59.958Z,13.48
2022-11-28T08:02:48.136Z,13.35
2022-11-28T08:05:35.144Z,12.98
2022-11-28T08:08:23.817Z,18.50
2022-11-28T08:11:11.208Z,19.63
2022-11-28T08:13:59.317Z,15.32
2022-11-28T08:16:46.575Z,15.68
2022-11-28T08:19:35.406Z,14.63
2022-11-28T08:22:22.683Z,15.00
2022-11-28T08:25:09.883Z,13.13
2022-11-28T08:27:56.934Z,16.88
2022-11-28T08:30:44.013Z,13.68
2022-11-28T08:33:31.069Z,10.85
2022-11-28T08:36:19.786Z,13.57
2022-11-28T08:39:23.509Z,12.95
2022-11-28T08:42:11.706Z,16.48
2022-11-28T08:44:58.714Z,15.25
2022-11-28T08:47:45.709Z,14.85
2022-11-28T08:50:32.700Z,15.98
2022-11-28T08:53:19.906Z,17.33
2022-11-28T08:56:07.472Z,25.83
2022-11-28T08:58:54.905Z,31.27
2022-11-28T09:01:42.060Z,27.63
2022-11-28T09:04:29.313Z,24.88
2022-11-28T09:07:16.403Z,24.42
2022-11-28T09:10:03.809Z,21.02
2022-11-28T09:12:51.750Z,18.25
2022-11-28T09:15:43.434Z,22.60
2022-11-28T09:18:30.570Z,21.23
2022-11-28T09:21:17.596Z,23.00
2022-11-28T09:24:05.208Z,22.92
2022-11-28T09:26:52.292Z,19.75
2022-11-28T09:29:39.573Z,18.73
2022-11-28T09:32:26.597Z,16.30
2022-11-28T09:35:13.631Z,18.77
2022-11-28T09:38:00.668Z,18.77
2022-11-28T09:40:48.419Z,16.83
2022-11-28T09:43:38.346Z,14.98
2022-11-28T09:46:29.941Z,16.45
2022-11-28T09:49:40.399Z,16.77
2022-11-28T09:52:40.312Z,15.88
2022-11-28T09:55:41.934Z,16.73
2022-11-28T09:58:28.882Z,14.48
2022-11-28T10:01:26.035Z,12.93
2022-11-28T10:04:31.876Z,13.77
2022-11-28T10:07:22.042Z,12.73
2022-11-28T10:10:15.006Z,13.60
2022-11-28T10:13:23.776Z,15.50
2022-11-28T10:16:34.938Z,14.80
2022-11-28T10:19:56.661Z,14.05
2022-11-28T10:22:52.312Z,15.40
2022-11-28T10:25:43.939Z,15.37
2022-11-28T10:28:35.934Z,16.75
2022-11-28T10:31:36.392Z,15.23
2022-11-28T10:34:31.618Z,14.52
2022-11-28T10:37:27.966Z,12.48
2022-11-28T10:40:38.895Z,12.55
2022-11-28T10:43:35.950Z,19.13
2022-11-28T10:46:42.391Z,13.75
2022-11-28T10:49:48.102Z,13.18
2022-11-28T10:53:03.826Z,19.63
2022-11-28T10:56:16.106Z,20.00
2022-11-28T10:59:11.723Z,19.75
2022-11-28T11:02:00.597Z,18.67
2022-11-28T11:04:48.176Z,20.50
2022-11-28T11:07:35.309Z,20.00
2022-11-28T11:10:29.642Z,19.65
2022-11-28T11:13:28.111Z,19.42
2022-11-28T11:16:15.243Z,16.92
2022-11-28T11:19:02.435Z,16.05
2022-11-28T11:21:59.933Z,19.08
2022-11-28T11:25:07.412Z,16.73
2022-11-28T11:28:01.259Z,20.65
2022-11-28T11:30:48.579Z,15.93
2022-11-28T11:33:37.587Z,16.45
2022-11-28T11:36:28.065Z,20.98
2022-11-28T11:39:23.641Z,17.35
2022-11-28T11:42:19.379Z,20.40
2022-11-28T11:45:34.229Z,16.30
2022-11-28T11:48:39.673Z,16.63
2022-11-28T11:51:37.997Z,17.58
2022-11-28T11:54:26.814Z,23.30
2022-11-28T11:57:32.576Z,18.83
2022-11-28T12:03:38.104Z,16.33
2022-11-28T12:06:34.066Z,16.35
2022-11-28T12:09:47.314Z,28.08
2022-11-28T12:12:37.068Z,19.02
2022-11-28T12:15:41.384Z,18.23
2022-11-28T12:18:48.030Z,19.15
2022-11-28T12:21:43.324Z,18.60
2022-11-28T12:25:02.453Z,15.50
2022-11-28T12:28:26.942Z,20.23
2022-11-28T12:31:44.447Z,17.05
2022-11-28T12:35:04.729Z,19.33
2022-11-28T12:38:21.853Z,15.25
2022-11-28T12:41:46.433Z,17.17
2022-11-28T12:45:05.598Z,14.70
2022-11-28T12:47:58.614Z,15.68
2022-11-28T12:50:49.326Z,16.35
2022-11-28T12:53:54.197Z,18.88
2022-11-28T12:57:12.210Z,71.15
2022-11-28T13:00:08.740Z,218.73
2022-11-28T13:03:31.565Z,212.55
2022-11-28T13:06:37.626Z,181.07
2022-11-28T13:09:34.443Z,170.00
2022-11-28T13:12:41.961Z,32.45
2022-11-28T13:15:52.159Z,14.85
2022-11-28T13:18:54.682Z,23.73
2022-11-28T13:22:09.997Z,15.50
2022-11-28T13:25:19.518Z,20.67
2022-11-28T13:28:18.424Z,15.45
2022-11-28T13:31:15.358Z,13.48
2022-11-28T13:34:03.412Z,11.68
2022-11-28T13:40:52.893Z,14.00
2022-11-28T13:44:04.564Z,13.25
2022-11-28T13:46:51.832Z,11.98
2022-11-28T13:49:38.878Z,15.00
2022-11-28T13:52:25.922Z,13.05
2022-11-28T13:55:38.117Z,13.85
2022-11-28T13:58:28.989Z,15.55
2022-11-28T14:01:17.852Z,20.67
2022-11-28T14:04:11.978Z,17.25
2022-11-28T14:07:05.426Z,14.98
2022-11-28T14:10:15.494Z,17.92
2022-11-28T14:13:24.773Z,17.35
2022-11-28T14:16:24.454Z,19.77
2022-11-28T14:19:30.753Z,17.85
2022-11-28T14:22:21.373Z,19.15
2022-11-28T14:25:28.682Z,17.25
2022-11-28T14:28:36.926Z,17.70
2022-11-28T14:31:37.205Z,15.80
2022-11-28T14:34:46.325Z,17.33
2022-11-28T14:37:34.894Z,19.33
2022-11-28T14:41:15.595Z,19.05
2022-11-28T14:44:43.935Z,17.10
2022-11-28T14:47:34.879Z,21.40
2022-11-28T14:50:21.900Z,23.50
2022-11-28T14:53:45.541Z,17.33
2022-11-28T14:56:34.169Z,20.17
2022-11-28T14:59:31.334Z,17.73
2022-11-28T15:02:47.835Z,18.15
2022-11-28T15:05:39.705Z,19.33
2022-11-28T15:08:39.270Z,17.95
2022-11-28T15:11:58.366Z,16.17
2022-11-28T15:14:51.070Z,15.68
2022-11-28T15:17:40.201Z,18.92
2022-11-28T15:20:53.768Z,16.67
2022-11-28T15:23:43.777Z,13.52
2022-11-28T15:26:31.366Z,24.60
2022-11-28T15:29:21.946Z,23.92
2022-11-28T15:32:13.569Z,19.25
2022-11-28T15:35:07.726Z,16.63
2022-11-28T15:37:58.633Z,20.05
2022-11-28T15:40:51.437Z,21.67
2022-11-28T15:43:43.552Z,25.17
2022-11-28T15:46:34.128Z,23.10
2022-11-28T15:49:26.978Z,25.70
2022-11-28T15:52:19.981Z,36.08
2022-11-28T15:55:17.007Z,26.77
2022-11-28T15:58:20.947Z,23.85
2022-11-28T16:01:18.653Z,26.50
2022-11-28T16:04:12.738Z,29.80
2022-11-28T16:07:01.945Z,21.52
2022-11-28T16:09:56.502Z,21.38
2022-11-28T16:12:44.233Z,22.65
2022-11-28T16:15:32.100Z,19.02
2022-11-28T16:18:19.528Z,18.38
2022-11-28T16:21:13.195Z,21.52
2022-11-28T16:24:01.592Z,21.15
2022-11-28T16:26:59.875Z,17.90
2022-11-28T16:29:47.048Z,21.42
2022-11-28T16:32:39.701Z,14.32
2022-11-28T16:35:40.349Z,32.67
2022-11-28T16:38:27.558Z,21.98
2022-11-28T16:41:22.893Z,18.65
2022-11-28T16:44:15.576Z,27.48
2022-11-28T16:47:02.837Z,26.85
2022-11-28T16:50:17.539Z,25.30
2022-11-28T16:53:05.185Z,21.45
2022-11-28T16:56:26.621Z,25.70
2022-11-28T16:59:16.506Z,27.90
2022-11-28T17:02:04.283Z,26.45
2022-11-28T17:04:53.083Z,24.92
2022-11-28T17:07:40.160Z,20.90
2022-11-28T17:10:27.801Z,27.55
2022-11-28T17:13:17.216Z,21.45
2022-11-28T17:16:04.599Z,17.27
2022-11-28T17:18:52.196Z,18.50
2022-11-28T17:21:48.410Z,19.10
2022-11-28T17:24:36.244Z,19.60
2022-11-28T17:27:23.231Z,16.23
2022-11-28T17:30:17.237Z,17.73
2022-11-28T17:33:05.291Z,15.13
2022-11-28T17:35:54.448Z,14.82
2022-11-28T17:38:41.513Z,17.48
2022-11-28T17:41:28.588Z,16.05
2022-11-28T17:44:26.050Z,14.70
2022-11-28T17:47:13.660Z,12.75
2022-11-28T17:50:01.519Z,15.90
2022-11-28T17:52:48.654Z,13.63
2022-11-28T17:55:39.525Z,14.20
2022-11-28T17:58:27.172Z,15.00
2022-11-28T18:01:21.730Z,14.98
2022-11-28T18:04:08.790Z,12.73
2022-11-28T18:06:55.823Z,13.57
2022-11-28T18:09:43.247Z,14.55
2022-11-28T18:12:31.153Z,14.40
2022-11-28T18:15:18.259Z,17.38
2022-11-28T18:18:10.718Z,16.83
2022-11-28T18:20:58.424Z,26.00
2022-11-28T18:23:49.368Z,27.77
2022-11-28T18:26:38.804Z,24.55
2022-11-28T18:29:26.063Z,28.45
2022-11-28T18:32:13.711Z,29.35
2022-11-28T18:35:00.700Z,23.45
2022-11-28T18:37:48.032Z,26.20
2022-11-28T18:40:36.283Z,23.48
2022-11-28T18:43:23.294Z,21.15
2022-11-28T18:46:17.030Z,21.52
2022-11-28T18:49:04.362Z,22.13
2022-11-28T18:51:51.861Z,19.80
2022-11-28T18:54:40.314Z,18.05
2022-11-28T18:57:31.311Z,18.27
2022-11-28T19:00:18.999Z,17.35
2022-11-28T19:03:08.877Z,22.00
2022-11-28T19:05:56.281Z,22.08
2022-11-28T19:08:43.332Z,20.05
2022-11-28T19:11:31.412Z,20.80
2022-11-28T19:14:21.093Z,19.33
2022-11-28T19:17:08.637Z,19.38
2022-11-28T19:19:55.801Z,15.57
2022-11-28T19:22:42.845Z,19.95
2022-11-28T19:25:31.658Z,20.13
2022-11-28T19:28:18.714Z,18.15
2022-11-28T19:31:15.575Z,15.02
2022-11-28T19:34:12.607Z,15.35
2022-11-28T19:37:00.040Z,16.58
2022-11-28T19:39:47.311Z,18.42
2022-11-28T19:42:35.216Z,17.73
2022-11-28T19:45:22.354Z,16.80
2022-11-28T19:48:09.478Z,18.30
2022-11-28T19:50:56.897Z,16.52
2022-11-28T19:53:44.641Z,15.73
2022-11-28T19:56:32.989Z,18.30
2022-11-28T19:59:20.032Z,18.88
2022-11-28T20:02:09.372Z,16.90
2022-11-28T20:04:58.727Z,16.38
2022-11-28T20:07:45.910Z,17.15
2022-11-28T20:10:37.757Z,16.90
2022-11-28T20:13:25.378Z,18.55
2022-11-28T20:16:14.228Z,22.58
2022-11-28T20:19:02.106Z,20.30
2022-11-28T20:21:49.114Z,23.38
2022-11-28T20:24:36.393Z,28.35
2022-11-28T20:27:23.700Z,35.13
2022-11-28T20:30:13.740Z,35.80
2022-11-28T20:33:01.225Z,38.42
2022-11-28T20:35:48.379Z,33.00
2022-11-28T20:38:36.471Z,26.77
2022-11-28T20:41:25.008Z,25.30
2022-11-28T20:44:12.016Z,23.92
2022-11-28T20:46:59.261Z,21.30
2022-11-28T20:49:46.520Z,20.70
2022-11-28T20:52:33.707Z,18.42
2022-11-28T20:55:20.724Z,20.27
2022-11-28T20:58:07.768Z,20.63
2022-11-28T21:00:55.015Z,18.15
2022-11-28T21:03:42.498Z,18.33
2022-11-28T21:06:29.989Z,16.77
2022-11-28T21:09:19.949Z,21.55
2022-11-28T21:12:07.389Z,21.02
2022-11-28T21:14:54.709Z,18.48
2022-11-28T21:17:41.733Z,26.27
2022-11-28T21:20:30.814Z,34.90
2022-11-28T21:23:17.843Z,39.53
2022-11-28T21:26:10.955Z,50.42
2022-11-28T21:29:01.785Z,41.90
2022-11-28T21:31:48.943Z,47.83
2022-11-28T21:34:36.115Z,47.05
2022-11-28T21:37:23.127Z,41.80
2022-11-28T21:40:10.740Z,36.63
2022-11-28T21:42:58.471Z,38.55
2022-11-28T21:45:46.183Z,42.05
2022-11-28T21:48:35.015Z,39.03
2022-11-28T21:51:24.994Z,37.00
2022-11-28T21:54:12.544Z,39.22
2022-11-28T21:57:00.128Z,40.83
2022-11-28T21:59:47.245Z,43.17
2022-11-28T22:02:34.583Z,51.70
2022-11-28T22:05:21.655Z,43.55
2022-11-28T22:08:10.672Z,31.85
2022-11-28T22:11:00.929Z,33.38
2022-11-28T22:13:50.029Z,30.88
2022-11-28T22:16:37.414Z,30.38
2022-11-28T22:19:24.495Z,28.33
2022-11-28T22:22:11.870Z,25.90
2022-11-28T22:25:00.523Z,27.48
2022-11-28T22:27:47.938Z,25.02
2022-11-28T22:30:37.026Z,27.40
2022-11-28T22:33:24.128Z,29.00
2022-11-28T22:36:13.853Z,23.48
2022-11-28T22:39:02.397Z,20.27
2022-11-28T22:41:49.681Z,24.33
2022-11-28T22:44:37.523Z,19.73
2022-11-28T22:47:24.899Z,23.15
2022-11-28T22:50:12.570Z,24.08
2022-11-28T22:52:59.763Z,17.45
2022-11-28T22:55:46.851Z,24.00
2022-11-28T22:58:42.461Z,19.65
2022-11-28T23:01:32.024Z,19.50
2022-11-28T23:04:21.203Z,17.20
2022-11-28T23:07:08.229Z,21.60
2022-11-28T23:09:55.334Z,19.75
2022-11-28T23:12:42.737Z,21.63
2022-11-28T23:15:29.912Z,18.40
2022-11-28T23:18:17.389Z,19.52
2022-11-28T23:21:05.280Z,19.98
2022-11-28T23:23:53.006Z,18.73
2022-11-28T23:26:40.648Z,21.52
2022-11-28T23:29:27.798Z,18.20
2022-11-28T23:32:15.321Z,20.35
2022-11-28T23:35:02.392Z,23.55
2022-11-28T23:37:49.422Z,18.63
2022-11-28T23:40:36.430Z,24.83
2022-11-28T23:43:23.496Z,21.60
2022-11-28T23:46:11.711Z,21.83
2022-11-28T23:48:58.849Z,21.50
2022-11-28T23:51:45.876Z,24.77
2022-11-28T23:54:33.364Z,22.35
2022-11-28T23:57:20.452Z,18.60
